sensor_id;sensor_type;location;lat;lon;timestamp;temperature;humidity
25582;DHT22;13462;50.764;4.332;2022-07-23T00:00:46;15.50;99.90
25582;DHT22;13462;50.764;4.332;2022-07-23T00:03:12;15.50;99.90
25582;DHT22;13462;50.764;4.332;2022-07-23T00:05:38;15.50;99.90
25582;DHT22;13462;50.764;4.332;2022-07-23T00:08:05;15.50;99.90
25582;DHT22;13462;50.764;4.332;2022-07-23T00:10:31;15.50;99.90
25582;DHT22;13462;50.764;4.332;2022-07-23T00:12:57;15.40;99.90
25582;DHT22;13462;50.764;4.332;2022-07-23T00:15:22;15.30;99.90
25582;DHT22;13462;50.764;4.332;2022-07-23T00:17:48;15.30;99.90
25582;DHT22;13462;50.764;4.332;2022-07-23T00:20:14;15.30;99.90
25582;DHT22;13462;50.764;4.332;2022-07-23T00:22:50;15.50;99.90
25582;DHT22;13462;50.764;4.332;2022-07-23T00:25:16;15.40;99.90
25582;DHT22;13462;50.764;4.332;2022-07-23T00:27:42;15.50;99.90
25582;DHT22;13462;50.764;4.332;2022-07-23T00:30:08;15.30;99.90
25582;DHT22;13462;50.764;4.332;2022-07-23T00:32:52;15.30;99.90
25582;DHT22;13462;50.764;4.332;2022-07-23T00:35:20;15.30;99.90
25582;DHT22;13462;50.764;4.332;2022-07-23T00:37:46;15.30;99.90
25582;DHT22;13462;50.764;4.332;2022-07-23T00:40:12;15.20;99.90
25582;DHT22;13462;50.764;4.332;2022-07-23T00:42:38;15.10;99.90
25582;DHT22;13462;50.764;4.332;2022-07-23T00:45:04;15.10;99.90
25582;DHT22;13462;50.764;4.332;2022-07-23T00:47:30;15.10;99.90
25582;DHT22;13462;50.764;4.332;2022-07-23T00:49:56;15.00;99.90
25582;DHT22;13462;50.764;4.332;2022-07-23T00:52:22;15.00;99.90
25582;DHT22;13462;50.764;4.332;2022-07-23T00:54:48;15.00;99.90
25582;DHT22;13462;50.764;4.332;2022-07-23T00:57:13;15.00;99.90
25582;DHT22;13462;50.764;4.332;2022-07-23T00:59:40;14.90;99.90
25582;DHT22;13462;50.764;4.332;2022-07-23T01:02:05;15.00;99.90
25582;DHT22;13462;50.764;4.332;2022-07-23T01:04:31;15.00;99.90
25582;DHT22;13462;50.764;4.332;2022-07-23T01:06:57;15.00;99.90
25582;DHT22;13462;50.764;4.332;2022-07-23T01:09:23;14.90;99.90
25582;DHT22;13462;50.764;4.332;2022-07-23T01:11:50;15.00;99.90
25582;DHT22;13462;50.764;4.332;2022-07-23T01:14:18;15.10;99.90
25582;DHT22;13462;50.764;4.332;2022-07-23T01:16:47;14.90;99.90
25582;DHT22;13462;50.764;4.332;2022-07-23T01:19:13;14.90;99.90
25582;DHT22;13462;50.764;4.332;2022-07-23T01:21:46;15.00;99.90
25582;DHT22;13462;50.764;4.332;2022-07-23T01:24:12;14.90;99.90
25582;DHT22;13462;50.764;4.332;2022-07-23T01:26:41;14.80;99.90
25582;DHT22;13462;50.764;4.332;2022-07-23T01:29:06;14.90;99.90
25582;DHT22;13462;50.764;4.332;2022-07-23T01:31:32;14.80;99.90
25582;DHT22;13462;50.764;4.332;2022-07-23T01:33:58;14.80;99.90
25582;DHT22;13462;50.764;4.332;2022-07-23T01:36:23;14.80;99.90
25582;DHT22;13462;50.764;4.332;2022-07-23T01:38:50;14.90;99.90
25582;DHT22;13462;50.764;4.332;2022-07-23T01:41:16;14.80;99.90
25582;DHT22;13462;50.764;4.332;2022-07-23T01:43:41;14.80;99.90
25582;DHT22;13462;50.764;4.332;2022-07-23T01:46:07;14.80;99.90
25582;DHT22;13462;50.764;4.332;2022-07-23T01:48:33;14.80;99.90
25582;DHT22;13462;50.764;4.332;2022-07-23T01:50:58;14.70;99.90
25582;DHT22;13462;50.764;4.332;2022-07-23T01:53:24;14.70;99.90
25582;DHT22;13462;50.764;4.332;2022-07-23T01:55:50;14.70;99.90
25582;DHT22;13462;50.764;4.332;2022-07-23T01:58:15;14.70;99.90
25582;DHT22;13462;50.764;4.332;2022-07-23T02:00:41;14.80;99.90
25582;DHT22;13462;50.764;4.332;2022-07-23T02:03:06;14.80;99.90
25582;DHT22;13462;50.764;4.332;2022-07-23T02:05:32;14.80;99.90
25582;DHT22;13462;50.764;4.332;2022-07-23T02:07:58;14.70;99.90
25582;DHT22;13462;50.764;4.332;2022-07-23T02:10:25;14.70;99.90
25582;DHT22;13462;50.764;4.332;2022-07-23T02:12:51;14.60;99.90
25582;DHT22;13462;50.764;4.332;2022-07-23T02:15:16;14.60;99.90
25582;DHT22;13462;50.764;4.332;2022-07-23T02:17:42;14.60;99.90
25582;DHT22;13462;50.764;4.332;2022-07-23T02:20:09;14.60;99.90
25582;DHT22;13462;50.764;4.332;2022-07-23T02:22:35;14.60;99.90
25582;DHT22;13462;50.764;4.332;2022-07-23T02:25:02;14.60;99.90
25582;DHT22;13462;50.764;4.332;2022-07-23T02:27:27;14.60;99.90
25582;DHT22;13462;50.764;4.332;2022-07-23T02:29:53;14.60;99.90
25582;DHT22;13462;50.764;4.332;2022-07-23T02:32:19;14.60;99.90
25582;DHT22;13462;50.764;4.332;2022-07-23T02:34:47;14.40;99.90
25582;DHT22;13462;50.764;4.332;2022-07-23T02:37:13;14.40;99.90
25582;DHT22;13462;50.764;4.332;2022-07-23T02:39:38;14.40;99.90
25582;DHT22;13462;50.764;4.332;2022-07-23T02:42:04;14.30;99.90
25582;DHT22;13462;50.764;4.332;2022-07-23T02:44:30;14.30;99.90
25582;DHT22;13462;50.764;4.332;2022-07-23T02:46:55;14.30;99.90
25582;DHT22;13462;50.764;4.332;2022-07-23T02:49:21;14.30;99.90
25582;DHT22;13462;50.764;4.332;2022-07-23T02:51:46;14.30;99.90
25582;DHT22;13462;50.764;4.332;2022-07-23T02:54:12;14.30;99.90
25582;DHT22;13462;50.764;4.332;2022-07-23T02:56:38;14.30;99.90
25582;DHT22;13462;50.764;4.332;2022-07-23T02:59:03;14.30;99.90
25582;DHT22;13462;50.764;4.332;2022-07-23T03:01:29;14.30;99.90
25582;DHT22;13462;50.764;4.332;2022-07-23T03:03:54;14.20;99.90
25582;DHT22;13462;50.764;4.332;2022-07-23T03:06:20;14.30;99.90
25582;DHT22;13462;50.764;4.332;2022-07-23T03:08:46;14.20;99.90
25582;DHT22;13462;50.764;4.332;2022-07-23T03:11:11;14.20;99.90
25582;DHT22;13462;50.764;4.332;2022-07-23T03:13:38;14.20;99.90
25582;DHT22;13462;50.764;4.332;2022-07-23T03:16:04;14.10;99.90
25582;DHT22;13462;50.764;4.332;2022-07-23T03:18:30;14.10;99.90
25582;DHT22;13462;50.764;4.332;2022-07-23T03:20:55;14.30;99.90
25582;DHT22;13462;50.764;4.332;2022-07-23T03:23:21;14.20;99.90
25582;DHT22;13462;50.764;4.332;2022-07-23T03:25:47;14.10;99.90
25582;DHT22;13462;50.764;4.332;2022-07-23T03:28:16;14.10;99.90
25582;DHT22;13462;50.764;4.332;2022-07-23T03:30:50;14.10;99.90
25582;DHT22;13462;50.764;4.332;2022-07-23T03:33:17;14.10;99.90
25582;DHT22;13462;50.764;4.332;2022-07-23T03:35:44;14.10;99.90
25582;DHT22;13462;50.764;4.332;2022-07-23T03:38:09;14.10;99.90
25582;DHT22;13462;50.764;4.332;2022-07-23T03:40:35;14.00;99.90
25582;DHT22;13462;50.764;4.332;2022-07-23T03:43:01;14.00;99.90
25582;DHT22;13462;50.764;4.332;2022-07-23T03:45:27;14.00;99.90
25582;DHT22;13462;50.764;4.332;2022-07-23T03:47:53;14.00;99.90
25582;DHT22;13462;50.764;4.332;2022-07-23T03:50:19;14.00;99.90
25582;DHT22;13462;50.764;4.332;2022-07-23T03:52:45;14.00;99.90
25582;DHT22;13462;50.764;4.332;2022-07-23T03:55:10;14.10;99.90
25582;DHT22;13462;50.764;4.332;2022-07-23T03:57:36;14.10;99.90
25582;DHT22;13462;50.764;4.332;2022-07-23T04:00:03;14.20;99.90
25582;DHT22;13462;50.764;4.332;2022-07-23T04:02:29;14.20;99.90
25582;DHT22;13462;50.764;4.332;2022-07-23T04:04:55;14.20;99.90
25582;DHT22;13462;50.764;4.332;2022-07-23T04:07:21;14.20;99.90
25582;DHT22;13462;50.764;4.332;2022-07-23T04:09:47;14.30;99.90
25582;DHT22;13462;50.764;4.332;2022-07-23T04:12:13;14.40;99.90
25582;DHT22;13462;50.764;4.332;2022-07-23T04:14:38;14.50;99.90
25582;DHT22;13462;50.764;4.332;2022-07-23T04:17:04;14.80;99.90
25582;DHT22;13462;50.764;4.332;2022-07-23T04:19:29;14.80;99.90
25582;DHT22;13462;50.764;4.332;2022-07-23T04:21:56;14.70;99.90
25582;DHT22;13462;50.764;4.332;2022-07-23T04:24:22;14.70;99.90
25582;DHT22;13462;50.764;4.332;2022-07-23T04:26:47;15.00;99.90
25582;DHT22;13462;50.764;4.332;2022-07-23T04:29:13;14.90;99.90
25582;DHT22;13462;50.764;4.332;2022-07-23T04:31:38;14.90;99.90
25582;DHT22;13462;50.764;4.332;2022-07-23T04:34:04;15.10;99.90
25582;DHT22;13462;50.764;4.332;2022-07-23T04:36:30;15.10;99.90
25582;DHT22;13462;50.764;4.332;2022-07-23T04:38:56;15.10;99.90
25582;DHT22;13462;50.764;4.332;2022-07-23T04:41:21;15.20;99.90
25582;DHT22;13462;50.764;4.332;2022-07-23T04:43:47;15.30;99.90
25582;DHT22;13462;50.764;4.332;2022-07-23T04:46:12;15.30;99.90
25582;DHT22;13462;50.764;4.332;2022-07-23T04:48:39;15.40;99.90
25582;DHT22;13462;50.764;4.332;2022-07-23T04:51:05;15.50;99.90
25582;DHT22;13462;50.764;4.332;2022-07-23T04:53:30;15.60;99.90
25582;DHT22;13462;50.764;4.332;2022-07-23T04:55:57;15.70;99.90
25582;DHT22;13462;50.764;4.332;2022-07-23T04:58:22;15.80;99.90
25582;DHT22;13462;50.764;4.332;2022-07-23T05:00:48;16.00;99.90
25582;DHT22;13462;50.764;4.332;2022-07-23T05:03:13;16.00;99.90
25582;DHT22;13462;50.764;4.332;2022-07-23T05:05:39;16.20;99.90
25582;DHT22;13462;50.764;4.332;2022-07-23T05:08:05;16.30;99.90
25582;DHT22;13462;50.764;4.332;2022-07-23T05:10:30;16.40;99.90
25582;DHT22;13462;50.764;4.332;2022-07-23T05:12:56;16.60;99.90
25582;DHT22;13462;50.764;4.332;2022-07-23T05:15:22;16.70;99.90
25582;DHT22;13462;50.764;4.332;2022-07-23T05:17:48;16.90;99.90
25582;DHT22;13462;50.764;4.332;2022-07-23T05:20:13;17.00;99.90
25582;DHT22;13462;50.764;4.332;2022-07-23T05:22:40;17.10;99.90
25582;DHT22;13462;50.764;4.332;2022-07-23T05:25:06;17.20;99.90
25582;DHT22;13462;50.764;4.332;2022-07-23T05:27:32;17.30;99.90
25582;DHT22;13462;50.764;4.332;2022-07-23T05:29:58;17.30;99.90
25582;DHT22;13462;50.764;4.332;2022-07-23T05:32:24;17.50;99.90
25582;DHT22;13462;50.764;4.332;2022-07-23T05:34:49;17.50;99.90
25582;DHT22;13462;50.764;4.332;2022-07-23T05:37:15;17.50;99.90
25582;DHT22;13462;50.764;4.332;2022-07-23T05:39:41;17.30;99.90
25582;DHT22;13462;50.764;4.332;2022-07-23T05:42:06;17.40;99.90
25582;DHT22;13462;50.764;4.332;2022-07-23T05:44:33;17.50;99.90
25582;DHT22;13462;50.764;4.332;2022-07-23T05:46:58;17.60;99.90
25582;DHT22;13462;50.764;4.332;2022-07-23T05:49:24;17.60;99.90
25582;DHT22;13462;50.764;4.332;2022-07-23T05:51:50;17.60;99.90
25582;DHT22;13462;50.764;4.332;2022-07-23T05:54:15;17.70;99.90
25582;DHT22;13462;50.764;4.332;2022-07-23T05:56:41;17.80;99.90
25582;DHT22;13462;50.764;4.332;2022-07-23T05:59:07;18.40;99.90
25582;DHT22;13462;50.764;4.332;2022-07-23T06:01:32;19.30;99.90
25582;DHT22;13462;50.764;4.332;2022-07-23T06:03:58;20.30;99.90
25582;DHT22;13462;50.764;4.332;2022-07-23T06:06:23;20.70;99.90
25582;DHT22;13462;50.764;4.332;2022-07-23T06:08:49;21.40;99.90
25582;DHT22;13462;50.764;4.332;2022-07-23T06:11:14;21.40;99.90
25582;DHT22;13462;50.764;4.332;2022-07-23T06:13:40;22.00;99.90
25582;DHT22;13462;50.764;4.332;2022-07-23T06:16:05;22.30;99.90
25582;DHT22;13462;50.764;4.332;2022-07-23T06:18:31;22.60;99.90
25582;DHT22;13462;50.764;4.332;2022-07-23T06:20:57;23.30;99.90
25582;DHT22;13462;50.764;4.332;2022-07-23T06:23:22;23.70;99.90
25582;DHT22;13462;50.764;4.332;2022-07-23T06:25:48;24.20;99.90
25582;DHT22;13462;50.764;4.332;2022-07-23T06:28:13;24.20;99.90
25582;DHT22;13462;50.764;4.332;2022-07-23T06:30:39;24.80;99.90
25582;DHT22;13462;50.764;4.332;2022-07-23T06:33:05;24.80;99.90
25582;DHT22;13462;50.764;4.332;2022-07-23T06:35:30;24.30;99.90
25582;DHT22;13462;50.764;4.332;2022-07-23T06:37:56;24.10;99.90
25582;DHT22;13462;50.764;4.332;2022-07-23T06:40:22;24.10;99.90
25582;DHT22;13462;50.764;4.332;2022-07-23T06:42:47;23.80;99.90
25582;DHT22;13462;50.764;4.332;2022-07-23T06:45:13;23.20;99.90
25582;DHT22;13462;50.764;4.332;2022-07-23T06:47:39;22.50;99.90
25582;DHT22;13462;50.764;4.332;2022-07-23T06:50:06;22.50;99.90
25582;DHT22;13462;50.764;4.332;2022-07-23T06:52:32;22.90;99.90
25582;DHT22;13462;50.764;4.332;2022-07-23T06:54:57;23.10;99.90
25582;DHT22;13462;50.764;4.332;2022-07-23T06:57:23;23.00;99.90
25582;DHT22;13462;50.764;4.332;2022-07-23T06:59:51;23.90;99.90
25582;DHT22;13462;50.764;4.332;2022-07-23T07:02:16;25.30;99.90
25582;DHT22;13462;50.764;4.332;2022-07-23T07:04:42;26.10;99.90
25582;DHT22;13462;50.764;4.332;2022-07-23T07:07:08;26.70;99.90
25582;DHT22;13462;50.764;4.332;2022-07-23T07:09:33;27.20;99.80
25582;DHT22;13462;50.764;4.332;2022-07-23T07:11:59;27.80;98.00
25582;DHT22;13462;50.764;4.332;2022-07-23T07:14:24;28.70;97.50
25582;DHT22;13462;50.764;4.332;2022-07-23T07:16:50;29.50;96.30
25582;DHT22;13462;50.764;4.332;2022-07-23T07:19:16;29.80;93.70
25582;DHT22;13462;50.764;4.332;2022-07-23T07:21:41;29.40;93.70
25582;DHT22;13462;50.764;4.332;2022-07-23T07:24:07;29.00;94.50
25582;DHT22;13462;50.764;4.332;2022-07-23T07:26:33;28.40;95.30
25582;DHT22;13462;50.764;4.332;2022-07-23T07:28:59;28.50;94.80
25582;DHT22;13462;50.764;4.332;2022-07-23T07:31:25;28.40;95.80
25582;DHT22;13462;50.764;4.332;2022-07-23T07:33:50;28.20;96.60
25582;DHT22;13462;50.764;4.332;2022-07-23T07:36:16;28.00;95.10
25582;DHT22;13462;50.764;4.332;2022-07-23T07:38:41;27.60;95.90
25582;DHT22;13462;50.764;4.332;2022-07-23T07:41:07;28.40;96.10
25582;DHT22;13462;50.764;4.332;2022-07-23T07:43:35;29.10;94.40
25582;DHT22;13462;50.764;4.332;2022-07-23T07:46:01;29.90;93.10
25582;DHT22;13462;50.764;4.332;2022-07-23T07:48:27;30.70;91.60
25582;DHT22;13462;50.764;4.332;2022-07-23T07:50:52;31.30;90.70
25582;DHT22;13462;50.764;4.332;2022-07-23T07:53:19;31.90;90.10
25582;DHT22;13462;50.764;4.332;2022-07-23T07:55:44;32.60;85.90
25582;DHT22;13462;50.764;4.332;2022-07-23T07:58:11;32.30;84.50
25582;DHT22;13462;50.764;4.332;2022-07-23T08:00:36;33.10;85.90
25582;DHT22;13462;50.764;4.332;2022-07-23T08:03:02;33.30;84.10
25582;DHT22;13462;50.764;4.332;2022-07-23T08:05:29;33.90;82.30
25582;DHT22;13462;50.764;4.332;2022-07-23T08:07:55;34.90;79.10
25582;DHT22;13462;50.764;4.332;2022-07-23T08:10:21;35.50;77.30
25582;DHT22;13462;50.764;4.332;2022-07-23T08:12:48;35.60;72.70
25582;DHT22;13462;50.764;4.332;2022-07-23T08:15:16;34.90;73.60
25582;DHT22;13462;50.764;4.332;2022-07-23T08:17:44;35.20;74.70
25582;DHT22;13462;50.764;4.332;2022-07-23T08:20:12;35.40;75.20
25582;DHT22;13462;50.764;4.332;2022-07-23T08:25:07;36.00;71.30
25582;DHT22;13462;50.764;4.332;2022-07-23T08:27:33;35.60;72.10
25582;DHT22;13462;50.764;4.332;2022-07-23T08:29:58;35.40;69.60
25582;DHT22;13462;50.764;4.332;2022-07-23T08:32:24;35.20;69.60
25582;DHT22;13462;50.764;4.332;2022-07-23T08:34:50;34.60;73.20
25582;DHT22;13462;50.764;4.332;2022-07-23T08:37:15;34.00;75.60
25582;DHT22;13462;50.764;4.332;2022-07-23T08:39:41;34.80;71.30
25582;DHT22;13462;50.764;4.332;2022-07-23T08:42:07;35.40;68.40
25582;DHT22;13462;50.764;4.332;2022-07-23T08:44:34;35.70;69.10
25582;DHT22;13462;50.764;4.332;2022-07-23T08:47:01;35.90;66.70
25582;DHT22;13462;50.764;4.332;2022-07-23T08:49:28;35.50;69.90
25582;DHT22;13462;50.764;4.332;2022-07-23T08:51:55;36.30;68.60
25582;DHT22;13462;50.764;4.332;2022-07-23T08:54:22;36.60;64.10
25582;DHT22;13462;50.764;4.332;2022-07-23T08:56:48;36.60;64.00
25582;DHT22;13462;50.764;4.332;2022-07-23T08:59:14;36.70;65.70
25582;DHT22;13462;50.764;4.332;2022-07-23T09:01:39;36.80;66.60
25582;DHT22;13462;50.764;4.332;2022-07-23T09:04:05;37.60;62.70
25582;DHT22;13462;50.764;4.332;2022-07-23T09:06:31;37.30;60.70
25582;DHT22;13462;50.764;4.332;2022-07-23T09:08:57;36.70;62.10
25582;DHT22;13462;50.764;4.332;2022-07-23T09:11:23;36.60;61.70
25582;DHT22;13462;50.764;4.332;2022-07-23T09:13:52;36.90;62.30
25582;DHT22;13462;50.764;4.332;2022-07-23T09:16:25;36.10;62.50
25582;DHT22;13462;50.764;4.332;2022-07-23T09:21:22;36.70;61.80
25582;DHT22;13462;50.764;4.332;2022-07-23T09:24:02;37.00;61.50
25582;DHT22;13462;50.764;4.332;2022-07-23T09:26:45;36.70;60.00
25582;DHT22;13462;50.764;4.332;2022-07-23T09:29:23;36.10;63.30
25582;DHT22;13462;50.764;4.332;2022-07-23T09:36:46;36.80;60.40
25582;DHT22;13462;50.764;4.332;2022-07-23T09:39:13;36.90;58.10
25582;DHT22;13462;50.764;4.332;2022-07-23T09:41:44;37.20;58.00
25582;DHT22;13462;50.764;4.332;2022-07-23T09:44:16;36.80;57.10
25582;DHT22;13462;50.764;4.332;2022-07-23T09:46:43;36.60;57.40
25582;DHT22;13462;50.764;4.332;2022-07-23T09:49:20;36.50;57.40
25582;DHT22;13462;50.764;4.332;2022-07-23T09:51:58;36.60;56.80
25582;DHT22;13462;50.764;4.332;2022-07-23T09:54:37;36.90;56.90
25582;DHT22;13462;50.764;4.332;2022-07-23T09:57:04;37.20;52.30
25582;DHT22;13462;50.764;4.332;2022-07-23T09:59:34;36.90;55.40
25582;DHT22;13462;50.764;4.332;2022-07-23T10:02:00;37.00;55.60
25582;DHT22;13462;50.764;4.332;2022-07-23T10:04:30;36.40;56.80
25582;DHT22;13462;50.764;4.332;2022-07-23T10:06:58;35.70;57.20
25582;DHT22;13462;50.764;4.332;2022-07-23T10:09:30;35.50;58.80
25582;DHT22;13462;50.764;4.332;2022-07-23T10:11:59;35.60;56.40
25582;DHT22;13462;50.764;4.332;2022-07-23T10:14:32;35.80;55.80
25582;DHT22;13462;50.764;4.332;2022-07-23T10:17:01;36.50;54.70
25582;DHT22;13462;50.764;4.332;2022-07-23T10:19:27;37.00;54.90
25582;DHT22;13462;50.764;4.332;2022-07-23T10:21:57;37.70;56.20
25582;DHT22;13462;50.764;4.332;2022-07-23T10:30:09;37.70;53.90
25582;DHT22;13462;50.764;4.332;2022-07-23T10:35:43;36.90;56.40
25582;DHT22;13462;50.764;4.332;2022-07-23T10:40:57;37.10;54.40
25582;DHT22;13462;50.764;4.332;2022-07-23T10:43:24;37.90;55.80
25582;DHT22;13462;50.764;4.332;2022-07-23T10:45:51;38.40;54.90
25582;DHT22;13462;50.764;4.332;2022-07-23T10:50:44;38.50;52.90
25582;DHT22;13462;50.764;4.332;2022-07-23T10:53:13;38.80;53.70
25582;DHT22;13462;50.764;4.332;2022-07-23T10:55:44;39.20;52.20
25582;DHT22;13462;50.764;4.332;2022-07-23T10:58:11;39.20;52.90
25582;DHT22;13462;50.764;4.332;2022-07-23T11:00:37;38.70;51.90
25582;DHT22;13462;50.764;4.332;2022-07-23T11:03:30;39.00;53.20
25582;DHT22;13462;50.764;4.332;2022-07-23T11:05:57;39.20;51.50
25582;DHT22;13462;50.764;4.332;2022-07-23T11:08:23;38.60;50.30
25582;DHT22;13462;50.764;4.332;2022-07-23T11:24:14;38.70;52.40
25582;DHT22;13462;50.764;4.332;2022-07-23T11:34:53;38.10;53.70
25582;DHT22;13462;50.764;4.332;2022-07-23T11:37:31;38.80;52.80
25582;DHT22;13462;50.764;4.332;2022-07-23T11:39:58;39.00;51.30
25582;DHT22;13462;50.764;4.332;2022-07-23T11:42:24;38.90;53.60
25582;DHT22;13462;50.764;4.332;2022-07-23T11:44:50;39.20;52.70
25582;DHT22;13462;50.764;4.332;2022-07-23T11:47:22;39.50;51.50
25582;DHT22;13462;50.764;4.332;2022-07-23T11:49:59;39.90;48.50
25582;DHT22;13462;50.764;4.332;2022-07-23T11:52:27;40.30;51.40
25582;DHT22;13462;50.764;4.332;2022-07-23T11:54:56;39.60;48.90
25582;DHT22;13462;50.764;4.332;2022-07-23T11:57:30;39.60;51.60
25582;DHT22;13462;50.764;4.332;2022-07-23T11:59:58;39.70;50.60
25582;DHT22;13462;50.764;4.332;2022-07-23T12:02:26;39.30;51.70
25582;DHT22;13462;50.764;4.332;2022-07-23T12:04:52;39.20;50.20
25582;DHT22;13462;50.764;4.332;2022-07-23T12:10:41;37.70;52.20
25582;DHT22;13462;50.764;4.332;2022-07-23T12:12:52;37.30;50.90
25582;DHT22;13462;50.764;4.332;2022-07-23T12:15:30;37.90;52.90
25582;DHT22;13462;50.764;4.332;2022-07-23T12:17:58;38.80;52.70
25582;DHT22;13462;50.764;4.332;2022-07-23T12:20:26;38.80;51.10
25582;DHT22;13462;50.764;4.332;2022-07-23T12:22:55;37.90;50.50
25582;DHT22;13462;50.764;4.332;2022-07-23T12:25:24;38.30;51.70
25582;DHT22;13462;50.764;4.332;2022-07-23T12:28:07;38.50;53.20
25582;DHT22;13462;50.764;4.332;2022-07-23T12:33:06;37.60;51.10
25582;DHT22;13462;50.764;4.332;2022-07-23T12:35:40;37.70;49.90
25582;DHT22;13462;50.764;4.332;2022-07-23T12:38:09;37.60;51.50
25582;DHT22;13462;50.764;4.332;2022-07-23T12:40:41;36.90;51.30
25582;DHT22;13462;50.764;4.332;2022-07-23T12:43:11;37.10;51.90
25582;DHT22;13462;50.764;4.332;2022-07-23T12:53:27;34.10;55.80
25582;DHT22;13462;50.764;4.332;2022-07-23T12:55:59;34.20;55.50
25582;DHT22;13462;50.764;4.332;2022-07-23T12:58:25;34.40;55.90
25582;DHT22;13462;50.764;4.332;2022-07-23T13:00:59;34.50;54.90
25582;DHT22;13462;50.764;4.332;2022-07-23T13:03:30;34.80;53.90
25582;DHT22;13462;50.764;4.332;2022-07-23T13:05:57;34.70;54.40
25582;DHT22;13462;50.764;4.332;2022-07-23T13:08:24;35.00;55.90
25582;DHT22;13462;50.764;4.332;2022-07-23T13:10:49;35.40;56.30
25582;DHT22;13462;50.764;4.332;2022-07-23T13:13:19;35.30;53.90
25582;DHT22;13462;50.764;4.332;2022-07-23T13:15:45;35.00;54.60
25582;DHT22;13462;50.764;4.332;2022-07-23T13:18:10;34.60;55.80
25582;DHT22;13462;50.764;4.332;2022-07-23T13:20:36;34.80;56.70
25582;DHT22;13462;50.764;4.332;2022-07-23T13:23:04;35.10;57.50
25582;DHT22;13462;50.764;4.332;2022-07-23T13:25:30;34.80;55.50
25582;DHT22;13462;50.764;4.332;2022-07-23T13:27:56;34.30;56.10
25582;DHT22;13462;50.764;4.332;2022-07-23T13:30:21;34.20;56.30
25582;DHT22;13462;50.764;4.332;2022-07-23T13:32:48;34.20;56.90
25582;DHT22;13462;50.764;4.332;2022-07-23T13:35:14;33.90;55.40
25582;DHT22;13462;50.764;4.332;2022-07-23T13:37:40;34.00;58.20
25582;DHT22;13462;50.764;4.332;2022-07-23T13:40:06;34.20;55.70
25582;DHT22;13462;50.764;4.332;2022-07-23T13:42:32;34.30;55.70
25582;DHT22;13462;50.764;4.332;2022-07-23T13:44:57;33.70;58.50
25582;DHT22;13462;50.764;4.332;2022-07-23T13:47:23;33.40;57.80
25582;DHT22;13462;50.764;4.332;2022-07-23T13:49:49;33.50;58.40
25582;DHT22;13462;50.764;4.332;2022-07-23T13:52:14;33.40;58.40
25582;DHT22;13462;50.764;4.332;2022-07-23T13:54:40;33.50;56.70
25582;DHT22;13462;50.764;4.332;2022-07-23T13:57:06;33.20;56.80
25582;DHT22;13462;50.764;4.332;2022-07-23T13:59:31;32.60;59.50
25582;DHT22;13462;50.764;4.332;2022-07-23T14:01:57;31.80;59.90
25582;DHT22;13462;50.764;4.332;2022-07-23T14:04:23;30.90;61.00
25582;DHT22;13462;50.764;4.332;2022-07-23T14:06:48;30.60;63.10
25582;DHT22;13462;50.764;4.332;2022-07-23T14:09:14;30.40;61.60
25582;DHT22;13462;50.764;4.332;2022-07-23T14:11:39;29.90;62.50
25582;DHT22;13462;50.764;4.332;2022-07-23T14:14:05;30.10;64.90
25582;DHT22;13462;50.764;4.332;2022-07-23T14:16:31;30.60;63.80
25582;DHT22;13462;50.764;4.332;2022-07-23T14:18:56;31.00;65.40
25582;DHT22;13462;50.764;4.332;2022-07-23T14:21:22;31.30;62.10
25582;DHT22;13462;50.764;4.332;2022-07-23T14:23:47;31.50;63.70
25582;DHT22;13462;50.764;4.332;2022-07-23T14:26:13;31.00;61.70
25582;DHT22;13462;50.764;4.332;2022-07-23T14:28:39;30.90;66.30
25582;DHT22;13462;50.764;4.332;2022-07-23T14:31:04;30.40;64.50
25582;DHT22;13462;50.764;4.332;2022-07-23T14:33:30;30.50;64.30
25582;DHT22;13462;50.764;4.332;2022-07-23T14:35:55;30.20;64.80
25582;DHT22;13462;50.764;4.332;2022-07-23T14:38:21;30.50;65.20
25582;DHT22;13462;50.764;4.332;2022-07-23T14:40:47;30.50;65.60
25582;DHT22;13462;50.764;4.332;2022-07-23T14:43:12;30.90;66.00
25582;DHT22;13462;50.764;4.332;2022-07-23T14:45:38;30.80;65.50
25582;DHT22;13462;50.764;4.332;2022-07-23T14:48:04;30.50;63.00
25582;DHT22;13462;50.764;4.332;2022-07-23T14:50:30;30.40;65.70
25582;DHT22;13462;50.764;4.332;2022-07-23T14:52:55;30.60;64.50
25582;DHT22;13462;50.764;4.332;2022-07-23T14:55:21;30.90;65.00
25582;DHT22;13462;50.764;4.332;2022-07-23T14:57:46;31.20;65.40
25582;DHT22;13462;50.764;4.332;2022-07-23T15:00:12;31.40;61.70
25582;DHT22;13462;50.764;4.332;2022-07-23T15:02:38;30.80;63.30
25582;DHT22;13462;50.764;4.332;2022-07-23T15:05:04;30.80;64.20
25582;DHT22;13462;50.764;4.332;2022-07-23T15:07:30;31.20;65.40
25582;DHT22;13462;50.764;4.332;2022-07-23T15:09:57;31.40;62.40
25582;DHT22;13462;50.764;4.332;2022-07-23T15:12:22;31.20;62.70
25582;DHT22;13462;50.764;4.332;2022-07-23T15:14:48;31.60;63.30
25582;DHT22;13462;50.764;4.332;2022-07-23T15:17:14;31.40;61.10
25582;DHT22;13462;50.764;4.332;2022-07-23T15:19:39;31.30;62.70
25582;DHT22;13462;50.764;4.332;2022-07-23T15:22:05;31.00;65.00
25582;DHT22;13462;50.764;4.332;2022-07-23T15:24:31;30.90;62.60
25582;DHT22;13462;50.764;4.332;2022-07-23T15:26:58;30.40;63.90
25582;DHT22;13462;50.764;4.332;2022-07-23T15:29:24;30.10;65.20
25582;DHT22;13462;50.764;4.332;2022-07-23T15:31:49;30.10;64.70
25582;DHT22;13462;50.764;4.332;2022-07-23T15:34:15;30.10;66.50
25582;DHT22;13462;50.764;4.332;2022-07-23T15:36:41;29.90;66.50
25582;DHT22;13462;50.764;4.332;2022-07-23T15:39:06;30.00;65.80
25582;DHT22;13462;50.764;4.332;2022-07-23T15:41:32;29.70;67.10
25582;DHT22;13462;50.764;4.332;2022-07-23T15:43:58;29.70;65.90
25582;DHT22;13462;50.764;4.332;2022-07-23T15:46:24;29.80;64.40
25582;DHT22;13462;50.764;4.332;2022-07-23T15:48:50;29.50;67.00
25582;DHT22;13462;50.764;4.332;2022-07-23T15:51:16;29.30;67.20
25582;DHT22;13462;50.764;4.332;2022-07-23T15:53:42;29.30;68.40
25582;DHT22;13462;50.764;4.332;2022-07-23T15:56:09;29.70;67.50
25582;DHT22;13462;50.764;4.332;2022-07-23T15:58:35;30.00;66.40
25582;DHT22;13462;50.764;4.332;2022-07-23T16:01:01;30.00;65.40
25582;DHT22;13462;50.764;4.332;2022-07-23T16:03:29;29.80;65.80
25582;DHT22;13462;50.764;4.332;2022-07-23T16:05:56;30.10;65.40
25582;DHT22;13462;50.764;4.332;2022-07-23T16:08:21;30.20;65.40
25582;DHT22;13462;50.764;4.332;2022-07-23T16:10:47;30.10;65.10
25582;DHT22;13462;50.764;4.332;2022-07-23T16:13:13;30.10;70.00
25582;DHT22;13462;50.764;4.332;2022-07-23T16:15:39;29.70;67.40
25582;DHT22;13462;50.764;4.332;2022-07-23T16:18:07;29.80;67.90
25582;DHT22;13462;50.764;4.332;2022-07-23T16:20:35;29.90;67.90
25582;DHT22;13462;50.764;4.332;2022-07-23T16:23:00;29.90;67.80
25582;DHT22;13462;50.764;4.332;2022-07-23T16:25:26;29.90;68.30